sensor_id;sensor_type;location;lat;lon;timestamp;pressure;altitude;pressure_sealevel;temperature
66113;BMP280;52893;52.870;5.822;2023-05-07T00:02:22;101652.44;;;15.45
66113;BMP280;52893;52.870;5.822;2023-05-07T00:04:49;101653.25;;;15.46
66113;BMP280;52893;52.870;5.822;2023-05-07T00:07:18;101656.00;;;15.46
66113;BMP280;52893;52.870;5.822;2023-05-07T00:09:45;101654.88;;;15.47
66113;BMP280;52893;52.870;5.822;2023-05-07T00:12:14;101653.72;;;15.48
66113;BMP280;52893;52.870;5.822;2023-05-07T00:14:41;101656.47;;;15.48
66113;BMP280;52893;52.870;5.822;2023-05-07T00:17:08;101647.75;;;15.46
66113;BMP280;52893;52.870;5.822;2023-05-07T00:19:35;101654.53;;;15.48
66113;BMP280;52893;52.870;5.822;2023-05-07T00:22:03;101648.91;;;15.45
66113;BMP280;52893;52.870;5.822;2023-05-07T00:24:30;101647.09;;;15.49
66113;BMP280;52893;52.870;5.822;2023-05-07T00:26:57;101651.47;;;15.50
66113;BMP280;52893;52.870;5.822;2023-05-07T00:29:26;101648.72;;;15.50
66113;BMP280;52893;52.870;5.822;2023-05-07T00:31:53;101654.22;;;15.50
66113;BMP280;52893;52.870;5.822;2023-05-07T00:34:20;101658.09;;;15.49
66113;BMP280;52893;52.870;5.822;2023-05-07T00:36:48;101658.91;;;15.49
66113;BMP280;52893;52.870;5.822;2023-05-07T00:39:15;101648.22;;;15.48
66113;BMP280;52893;52.870;5.822;2023-05-07T00:41:44;101659.22;;;15.48
66113;BMP280;52893;52.870;5.822;2023-05-07T00:44:11;101647.09;;;15.49
66113;BMP280;52893;52.870;5.822;2023-05-07T00:46:40;101647.09;;;15.49
66113;BMP280;52893;52.870;5.822;2023-05-07T00:49:07;101650.28;;;15.51
66113;BMP280;52893;52.870;5.822;2023-05-07T00:51:35;101649.53;;;15.50
66113;BMP280;52893;52.870;5.822;2023-05-07T00:54:02;101655.81;;;15.51
66113;BMP280;52893;52.870;5.822;2023-05-07T00:56:31;101650.28;;;15.51
66113;BMP280;52893;52.870;5.822;2023-05-07T00:58:59;101655.47;;;15.52
66113;BMP280;52893;52.870;5.822;2023-05-07T01:01:27;101654.34;;;15.54
66113;BMP280;52893;52.870;5.822;2023-05-07T01:03:56;101655.16;;;15.54
66113;BMP280;52893;52.870;5.822;2023-05-07T01:06:24;101644.78;;;15.51
66113;BMP280;52893;52.870;5.822;2023-05-07T01:08:54;101647.66;;;15.55
66113;BMP280;52893;52.870;5.822;2023-05-07T01:11:22;101640.22;;;15.55
66113;BMP280;52893;52.870;5.822;2023-05-07T01:13:51;101642.63;;;15.57
66113;BMP280;52893;52.870;5.822;2023-05-07T01:16:19;101644.91;;;15.55
66113;BMP280;52893;52.870;5.822;2023-05-07T01:18:46;101641.03;;;15.56
66113;BMP280;52893;52.870;5.822;2023-05-07T01:21:17;101640.22;;;15.55
66113;BMP280;52893;52.870;5.822;2023-05-07T01:23:47;101627.84;;;15.49
66113;BMP280;52893;52.870;5.822;2023-05-07T01:26:14;101572.84;;;15.16
66113;BMP280;52893;52.870;5.822;2023-05-07T01:28:45;101634.72;;;15.55
66113;BMP280;52893;52.870;5.822;2023-05-07T01:31:12;101637.03;;;15.53
66113;BMP280;52893;52.870;5.822;2023-05-07T01:33:41;101645.59;;;15.51
66113;BMP280;52893;52.870;5.822;2023-05-07T01:36:09;101618.19;;;15.43
66113;BMP280;52893;52.870;5.822;2023-05-07T01:38:39;101633.00;;;15.50
66113;BMP280;52893;52.870;5.822;2023-05-07T01:41:08;101642.53;;;15.53
66113;BMP280;52893;52.870;5.822;2023-05-07T01:43:36;101627.84;;;15.49
66113;BMP280;52893;52.870;5.822;2023-05-07T01:46:03;101631.22;;;15.46
66113;BMP280;52893;52.870;5.822;2023-05-07T01:48:32;101633.56;;;15.44
66113;BMP280;52893;52.870;5.822;2023-05-07T01:50:59;101638.25;;;15.43
66113;BMP280;52893;52.870;5.822;2023-05-07T01:53:27;101624.84;;;15.42
66113;BMP280;52893;52.870;5.822;2023-05-07T01:55:55;101624.34;;;15.40
66113;BMP280;52893;52.870;5.822;2023-05-07T01:58:25;101629.84;;;15.40
66113;BMP280;52893;52.870;5.822;2023-05-07T02:00:52;101633.28;;;15.37
66113;BMP280;52893;52.870;5.822;2023-05-07T02:03:19;101630.44;;;15.33
66113;BMP280;52893;52.870;5.822;2023-05-07T02:05:56;101637.88;;;15.33
66113;BMP280;52893;52.870;5.822;2023-05-07T02:08:38;101639.66;;;15.29
66113;BMP280;52893;52.870;5.822;2023-05-07T02:11:06;101637.63;;;15.26
66113;BMP280;52893;52.870;5.822;2023-05-07T02:13:36;101643.00;;;15.22
66113;BMP280;52893;52.870;5.822;2023-05-07T02:16:04;101644.47;;;15.20
66113;BMP280;52893;52.870;5.822;2023-05-07T02:18:31;101647.91;;;15.17
66113;BMP280;52893;52.870;5.822;2023-05-07T02:20:59;101649.72;;;15.13
66113;BMP280;52893;52.870;5.822;2023-05-07T02:23:26;101638.47;;;15.06
66113;BMP280;52893;52.870;5.822;2023-05-07T02:25:54;101641.66;;;15.08
66113;BMP280;52893;52.870;5.822;2023-05-07T02:28:21;101643.59;;;15.07
66113;BMP280;52893;52.870;5.822;2023-05-07T02:30:55;101644.63;;;15.02
66113;BMP280;52893;52.870;5.822;2023-05-07T02:33:24;101650.00;;;14.99
66113;BMP280;52893;52.870;5.822;2023-05-07T02:35:53;101649.53;;;14.97
66113;BMP280;52893;52.870;5.822;2023-05-07T02:38:20;101652.16;;;14.93
66113;BMP280;52893;52.870;5.822;2023-05-07T02:40:47;101644.09;;;14.88
66113;BMP280;52893;52.870;5.822;2023-05-07T02:43:15;101652.34;;;14.88
66113;BMP280;52893;52.870;5.822;2023-05-07T02:45:46;101643.84;;;14.81
66113;BMP280;52893;52.870;5.822;2023-05-07T02:48:16;101642.22;;;14.80
66113;BMP280;52893;52.870;5.822;2023-05-07T02:50:43;101644.97;;;14.80
66113;BMP280;52893;52.870;5.822;2023-05-07T02:53:13;101654.69;;;14.78
66113;BMP280;52893;52.870;5.822;2023-05-07T02:55:40;101652.94;;;14.73
66113;BMP280;52893;52.870;5.822;2023-05-07T02:58:07;101651.31;;;14.72
66113;BMP280;52893;52.870;5.822;2023-05-07T03:00:37;101656.72;;;14.69
66113;BMP280;52893;52.870;5.822;2023-05-07T03:03:15;101658.97;;;14.67
66113;BMP280;52893;52.870;5.822;2023-05-07T03:05:43;101665.47;;;14.62
66113;BMP280;52893;52.870;5.822;2023-05-07T03:08:10;101649.69;;;14.59
66113;BMP280;52893;52.870;5.822;2023-05-07T03:10:37;101649.38;;;14.52
66113;BMP280;52893;52.870;5.822;2023-05-07T03:13:05;101590.13;;;14.13
66113;BMP280;52893;52.870;5.822;2023-05-07T03:15:32;101658.75;;;14.51
66113;BMP280;52893;52.870;5.822;2023-05-07T03:17:59;101649.72;;;14.50
66113;BMP280;52893;52.870;5.822;2023-05-07T03:20:28;101654.41;;;14.50
66113;BMP280;52893;52.870;5.822;2023-05-07T03:22:56;101658.28;;;14.49
66113;BMP280;52893;52.870;5.822;2023-05-07T03:25:23;101651.16;;;14.48
66113;BMP280;52893;52.870;5.822;2023-05-07T03:27:51;101651.16;;;14.48
66113;BMP280;52893;52.870;5.822;2023-05-07T03:30:22;101647.97;;;14.46
66113;BMP280;52893;52.870;5.822;2023-05-07T03:32:50;101655.72;;;14.44
66113;BMP280;52893;52.870;5.822;2023-05-07T03:35:17;101657.06;;;14.38
66113;BMP280;52893;52.870;5.822;2023-05-07T03:37:47;101665.97;;;14.35
66113;BMP280;52893;52.870;5.822;2023-05-07T03:40:14;101653.22;;;14.30
66113;BMP280;52893;52.870;5.822;2023-05-07T03:42:46;101677.78;;;14.27
66113;BMP280;52893;52.870;5.822;2023-05-07T03:45:14;101668.81;;;14.18
66113;BMP280;52893;52.870;5.822;2023-05-07T03:47:46;101662.81;;;14.16
66113;BMP280;52893;52.870;5.822;2023-05-07T03:50:17;101657.53;;;14.11
66113;BMP280;52893;52.870;5.822;2023-05-07T03:52:44;101661.91;;;14.12
66113;BMP280;52893;52.870;5.822;2023-05-07T03:55:15;101663.66;;;14.08
66113;BMP280;52893;52.870;5.822;2023-05-07T03:57:48;101667.53;;;14.07
66113;BMP280;52893;52.870;5.822;2023-05-07T04:00:16;101670.28;;;14.07
66113;BMP280;52893;52.870;5.822;2023-05-07T04:02:49;101676.47;;;14.04
66113;BMP280;52893;52.870;5.822;2023-05-07T04:05:23;101672.09;;;14.02
66113;BMP280;52893;52.870;5.822;2023-05-07T04:07:55;101675.00;;;13.97
66113;BMP280;52893;52.870;5.822;2023-05-07T04:10:30;101682.31;;;13.93
66113;BMP280;52893;52.870;5.822;2023-05-07T04:13:01;101683.78;;;13.82
66113;BMP280;52893;52.870;5.822;2023-05-07T04:15:28;101669.41;;;13.77
66113;BMP280;52893;52.870;5.822;2023-05-07T04:17:56;101672.50;;;13.75
66113;BMP280;52893;52.870;5.822;2023-05-07T04:20:25;101685.75;;;13.73
66113;BMP280;52893;52.870;5.822;2023-05-07T04:22:58;101688.66;;;13.68
66113;BMP280;52893;52.870;5.822;2023-05-07T04:25:26;101687.03;;;13.67
66113;BMP280;52893;52.870;5.822;2023-05-07T04:28:00;101692.19;;;13.69
66113;BMP280;52893;52.870;5.822;2023-05-07T04:30:28;101701.22;;;13.69
66113;BMP280;52893;52.870;5.822;2023-05-07T04:32:56;101695.72;;;13.69
66113;BMP280;52893;52.870;5.822;2023-05-07T04:35:26;101697.66;;;13.69
66113;BMP280;52893;52.870;5.822;2023-05-07T04:37:54;101693.81;;;13.70
66113;BMP280;52893;52.870;5.822;2023-05-07T04:40:21;101693.66;;;13.66
66113;BMP280;52893;52.870;5.822;2023-05-07T04:42:48;101695.09;;;13.72
66113;BMP280;52893;52.870;5.822;2023-05-07T04:45:17;101694.78;;;13.74
66113;BMP280;52893;52.870;5.822;2023-05-07T04:47:46;101699.94;;;13.75
66113;BMP280;52893;52.870;5.822;2023-05-07T04:50:13;101695.72;;;13.69
66113;BMP280;52893;52.870;5.822;2023-05-07T04:52:42;101690.13;;;13.66
66113;BMP280;52893;52.870;5.822;2023-05-07T04:55:10;101696.75;;;13.65
66113;BMP280;52893;52.870;5.822;2023-05-07T04:57:40;101713.50;;;13.63
66113;BMP280;52893;52.870;5.822;2023-05-07T05:00:08;101709.66;;;13.64
66113;BMP280;52893;52.870;5.822;2023-05-07T05:02:39;101707.22;;;13.63
66113;BMP280;52893;52.870;5.822;2023-05-07T05:05:08;101711.59;;;13.64
66113;BMP280;52893;52.870;5.822;2023-05-07T05:07:35;101714.47;;;13.59
66113;BMP280;52893;52.870;5.822;2023-05-07T05:10:04;101713.50;;;13.63
66113;BMP280;52893;52.870;5.822;2023-05-07T05:12:34;101719.00;;;13.63
66113;BMP280;52893;52.870;5.822;2023-05-07T05:15:02;101726.75;;;13.61
66113;BMP280;52893;52.870;5.822;2023-05-07T05:17:30;101724.34;;;13.60
66113;BMP280;52893;52.870;5.822;2023-05-07T05:19:59;101715.97;;;13.56
66113;BMP280;52893;52.870;5.822;2023-05-07T05:22:26;101718.34;;;13.58
66113;BMP280;52893;52.870;5.822;2023-05-07T05:24:56;101712.41;;;13.56
66113;BMP280;52893;52.870;5.822;2023-05-07T05:27:23;101724.22;;;13.56
66113;BMP280;52893;52.870;5.822;2023-05-07T05:29:51;101722.41;;;13.51
66113;BMP280;52893;52.870;5.822;2023-05-07T05:32:18;101730.00;;;13.55
66113;BMP280;52893;52.870;5.822;2023-05-07T05:34:46;101732.44;;;13.56
66113;BMP280;52893;52.870;5.822;2023-05-07T05:37:14;101740.47;;;13.52
66113;BMP280;52893;52.870;5.822;2023-05-07T05:39:42;101735.00;;;13.52
66113;BMP280;52893;52.870;5.822;2023-05-07T05:42:10;101733.38;;;13.51
66113;BMP280;52893;52.870;5.822;2023-05-07T05:44:37;101748.09;;;13.56
66113;BMP280;52893;52.870;5.822;2023-05-07T05:47:05;101739.47;;;13.57
66113;BMP280;52893;52.870;5.822;2023-05-07T05:49:32;101743.53;;;13.60
66113;BMP280;52893;52.870;5.822;2023-05-07T05:52:00;101751.78;;;13.60
66113;BMP280;52893;52.870;5.822;2023-05-07T05:54:30;101742.41;;;13.61
66113;BMP280;52893;52.870;5.822;2023-05-07T05:56:57;101739.34;;;13.62
66113;BMP280;52893;52.870;5.822;2023-05-07T05:59:25;101736.28;;;13.64
66113;BMP280;52893;52.870;5.822;2023-05-07T06:01:53;101745.78;;;13.66
66113;BMP280;52893;52.870;5.822;2023-05-07T06:04:21;101742.72;;;13.68
66113;BMP280;52893;52.870;5.822;2023-05-07T06:06:48;101736.59;;;13.71
66113;BMP280;52893;52.870;5.822;2023-05-07T06:09:16;101742.06;;;13.71
66113;BMP280;52893;52.870;5.822;2023-05-07T06:11:45;101742.38;;;13.78
66113;BMP280;52893;52.870;5.822;2023-05-07T06:14:13;101749.66;;;13.82
66113;BMP280;52893;52.870;5.822;2023-05-07T06:16:40;101743.84;;;13.84
66113;BMP280;52893;52.870;5.822;2023-05-07T06:19:08;101755.13;;;13.91
66113;BMP280;52893;52.870;5.822;2023-05-07T06:21:36;101761.44;;;13.91
66113;BMP280;52893;52.870;5.822;2023-05-07T06:24:03;101760.75;;;13.94
66113;BMP280;52893;52.870;5.822;2023-05-07T06:26:31;101769.97;;;13.98
66113;BMP280;52893;52.870;5.822;2023-05-07T06:28:59;101766.88;;;14.00
66113;BMP280;52893;52.870;5.822;2023-05-07T06:31:29;101764.47;;;13.98
66113;BMP280;52893;52.870;5.822;2023-05-07T06:34:02;101771.59;;;13.99
66113;BMP280;52893;52.870;5.822;2023-05-07T06:36:34;101761.75;;;13.98
66113;BMP280;52893;52.870;5.822;2023-05-07T06:39:06;101760.63;;;13.99
66113;BMP280;52893;52.870;5.822;2023-05-07T06:41:33;101767.06;;;14.04
66113;BMP280;52893;52.870;5.822;2023-05-07T06:44:08;101776.25;;;14.08
66113;BMP280;52893;52.870;5.822;2023-05-07T06:46:39;101772.88;;;14.11
66113;BMP280;52893;52.870;5.822;2023-05-07T06:49:07;101769.78;;;14.12
66113;BMP280;52893;52.870;5.822;2023-05-07T06:51:34;101770.22;;;14.23
66113;BMP280;52893;52.870;5.822;2023-05-07T06:54:03;101771.19;;;14.27
66113;BMP280;52893;52.870;5.822;2023-05-07T06:56:32;101772.94;;;14.31
66113;BMP280;52893;52.870;5.822;2023-05-07T06:59:00;101780.22;;;14.36
66113;BMP280;52893;52.870;5.822;2023-05-07T07:01:33;101775.69;;;14.40
66113;BMP280;52893;52.870;5.822;2023-05-07T07:04:02;101779.34;;;14.44
66113;BMP280;52893;52.870;5.822;2023-05-07T07:06:30;101777.56;;;14.48
66113;BMP280;52893;52.870;5.822;2023-05-07T07:08:59;101778.97;;;14.54
66113;BMP280;52893;52.870;5.822;2023-05-07T07:11:27;101795.31;;;14.59
66113;BMP280;52893;52.870;5.822;2023-05-07T07:13:55;101795.44;;;14.63
66113;BMP280;52893;52.870;5.822;2023-05-07T07:16:23;101769.09;;;14.62
66113;BMP280;52893;52.870;5.822;2023-05-07T07:18:52;101790.88;;;14.75
66113;BMP280;52893;52.870;5.822;2023-05-07T07:21:20;101781.44;;;14.85
66113;BMP280;52893;52.870;5.822;2023-05-07T07:23:47;101781.22;;;14.90
66113;BMP280;52893;52.870;5.822;2023-05-07T07:26:15;101794.47;;;14.96
66113;BMP280;52893;52.870;5.822;2023-05-07T07:28:43;101784.56;;;15.04
66113;BMP280;52893;52.870;5.822;2023-05-07T07:31:11;101764.50;;;15.04
66113;BMP280;52893;52.870;5.822;2023-05-07T07:33:39;101787.78;;;15.27
66113;BMP280;52893;52.870;5.822;2023-05-07T07:36:07;101795.84;;;15.32
66113;BMP280;52893;52.870;5.822;2023-05-07T07:38:35;101790.59;;;15.39
66113;BMP280;52893;52.870;5.822;2023-05-07T07:41:03;101774.75;;;15.36
66113;BMP280;52893;52.870;5.822;2023-05-07T07:43:31;101781.75;;;15.54
66113;BMP280;52893;52.870;5.822;2023-05-07T07:45:58;101800.00;;;15.59
66113;BMP280;52893;52.870;5.822;2023-05-07T07:48:27;101788.66;;;15.60
66113;BMP280;52893;52.870;5.822;2023-05-07T07:50:55;101795.56;;;15.66
66113;BMP280;52893;52.870;5.822;2023-05-07T07:53:23;101787.75;;;15.68
66113;BMP280;52893;52.870;5.822;2023-05-07T07:55:51;101795.13;;;15.76
66113;BMP280;52893;52.870;5.822;2023-05-07T07:58:21;101768.34;;;15.65
66113;BMP280;52893;52.870;5.822;2023-05-07T08:00:51;101794.94;;;15.81
66113;BMP280;52893;52.870;5.822;2023-05-07T08:03:18;101801.16;;;15.90
66113;BMP280;52893;52.870;5.822;2023-05-07T08:05:50;101786.25;;;15.91
66113;BMP280;52893;52.870;5.822;2023-05-07T08:08:17;101801.41;;;15.97
66113;BMP280;52893;52.870;5.822;2023-05-07T08:10:47;101803.13;;;16.02
66113;BMP280;52893;52.870;5.822;2023-05-07T08:13:21;101794.75;;;16.11
66113;BMP280;52893;52.870;5.822;2023-05-07T08:15:48;101796.72;;;16.22
66113;BMP280;52893;52.870;5.822;2023-05-07T08:18:16;101793.31;;;16.25
66113;BMP280;52893;52.870;5.822;2023-05-07T08:20:45;101797.34;;;16.28
66113;BMP280;52893;52.870;5.822;2023-05-07T08:23:16;101801.34;;;16.30
66113;BMP280;52893;52.870;5.822;2023-05-07T08:25:46;101802.03;;;16.39
66113;BMP280;52893;52.870;5.822;2023-05-07T08:28:15;101788.53;;;16.46
66113;BMP280;52893;52.870;5.822;2023-05-07T08:30:42;101803.44;;;16.58
66113;BMP280;52893;52.870;5.822;2023-05-07T08:33:09;101800.34;;;16.71
66113;BMP280;52893;52.870;5.822;2023-05-07T08:35:36;101791.38;;;16.74
66113;BMP280;52893;52.870;5.822;2023-05-07T08:38:06;101799.06;;;16.81
66113;BMP280;52893;52.870;5.822;2023-05-07T08:40:36;101807.56;;;16.88
66113;BMP280;52893;52.870;5.822;2023-05-07T08:43:08;101798.25;;;16.92
66113;BMP280;52893;52.870;5.822;2023-05-07T08:45:39;101806.06;;;17.02
66113;BMP280;52893;52.870;5.822;2023-05-07T08:48:10;101797.88;;;17.06
66113;BMP280;52893;52.870;5.822;2023-05-07T08:50:42;101813.94;;;17.16
66113;BMP280;52893;52.870;5.822;2023-05-07T08:53:10;101813.72;;;17.21
66113;BMP280;52893;52.870;5.822;2023-05-07T08:55:38;101775.63;;;17.15
66113;BMP280;52893;52.870;5.822;2023-05-07T08:58:05;101803.34;;;17.30
66113;BMP280;52893;52.870;5.822;2023-05-07T09:00:39;101791.69;;;17.37
66113;BMP280;52893;52.870;5.822;2023-05-07T09:03:06;101803.69;;;17.56
66113;BMP280;52893;52.870;5.822;2023-05-07T09:05:35;101798.97;;;17.57
66113;BMP280;52893;52.870;5.822;2023-05-07T09:08:05;101812.72;;;17.69
66113;BMP280;52893;52.870;5.822;2023-05-07T09:10:33;101798.72;;;17.62
66113;BMP280;52893;52.870;5.822;2023-05-07T09:13:02;101810.16;;;17.76
66113;BMP280;52893;52.870;5.822;2023-05-07T09:15:30;101813.09;;;17.83
66113;BMP280;52893;52.870;5.822;2023-05-07T09:18:00;101821.38;;;17.83
66113;BMP280;52893;52.870;5.822;2023-05-07T09:20:30;101820.78;;;17.90
66113;BMP280;52893;52.870;5.822;2023-05-07T09:22:58;101818.31;;;18.00
66113;BMP280;52893;52.870;5.822;2023-05-07T09:25:30;101819.03;;;18.13
66113;BMP280;52893;52.870;5.822;2023-05-07T09:28:01;101810.75;;;18.29
66113;BMP280;52893;52.870;5.822;2023-05-07T09:30:28;101825.47;;;18.33
66113;BMP280;52893;52.870;5.822;2023-05-07T09:32:59;101816.66;;;18.43
66113;BMP280;52893;52.870;5.822;2023-05-07T09:35:29;101789.53;;;18.33
66113;BMP280;52893;52.870;5.822;2023-05-07T09:38:01;101785.78;;;18.41
66113;BMP280;52893;52.870;5.822;2023-05-07T09:40:32;101805.50;;;18.74
66113;BMP280;52893;52.870;5.822;2023-05-07T09:43:11;101808.97;;;18.87
66113;BMP280;52893;52.870;5.822;2023-05-07T09:45:46;101811.53;;;18.95
66113;BMP280;52893;52.870;5.822;2023-05-07T09:48:19;101819.00;;;19.10
66113;BMP280;52893;52.870;5.822;2023-05-07T09:50:51;101811.19;;;19.54
66113;BMP280;52893;52.870;5.822;2023-05-07T09:53:24;101819.59;;;19.81
66113;BMP280;52893;52.870;5.822;2023-05-07T09:55:53;101823.59;;;20.06
66113;BMP280;52893;52.870;5.822;2023-05-07T09:58:21;101809.19;;;20.19
66113;BMP280;52893;52.870;5.822;2023-05-07T10:00:50;101816.06;;;20.55
66113;BMP280;52893;52.870;5.822;2023-05-07T10:03:20;101811.88;;;20.65
66113;BMP280;52893;52.870;5.822;2023-05-07T10:05:54;101814.88;;;20.82
66113;BMP280;52893;52.870;5.822;2023-05-07T10:08:22;101807.03;;;20.88
66113;BMP280;52893;52.870;5.822;2023-05-07T10:10:53;101812.94;;;21.16
66113;BMP280;52893;52.870;5.822;2023-05-07T10:13:24;101821.59;;;21.44
66113;BMP280;52893;52.870;5.822;2023-05-07T10:15:55;101811.06;;;21.61
66113;BMP280;52893;52.870;5.822;2023-05-07T10:18:26;101810.56;;;21.92
66113;BMP280;52893;52.870;5.822;2023-05-07T10:21:03;101807.47;;;22.04
66113;BMP280;52893;52.870;5.822;2023-05-07T10:23:32;101817.13;;;22.17
66113;BMP280;52893;52.870;5.822;2023-05-07T10:26:02;101802.13;;;22.32
66113;BMP280;52893;52.870;5.822;2023-05-07T10:28:34;101816.09;;;22.43
66113;BMP280;52893;52.870;5.822;2023-05-07T10:31:08;101806.09;;;22.31
66113;BMP280;52893;52.870;5.822;2023-05-07T10:33:46;101806.88;;;22.28
66113;BMP280;52893;52.870;5.822;2023-05-07T10:36:15;101813.91;;;22.15
66113;BMP280;52893;52.870;5.822;2023-05-07T10:38:43;101814.63;;;22.05
66113;BMP280;52893;52.870;5.822;2023-05-07T10:41:12;101813.50;;;22.09
66113;BMP280;52893;52.870;5.822;2023-05-07T10:43:44;101804.41;;;22.16
66113;BMP280;52893;52.870;5.822;2023-05-07T10:46:20;101807.63;;;22.18
66113;BMP280;52893;52.870;5.822;2023-05-07T10:49:08;101822.06;;;22.41
66113;BMP280;52893;52.870;5.822;2023-05-07T10:51:45;101822.94;;;22.52
66113;BMP280;52893;52.870;5.822;2023-05-07T10:54:22;101815.06;;;22.65
66113;BMP280;52893;52.870;5.822;2023-05-07T11:00:41;101825.22;;;23.15
66113;BMP280;52893;52.870;5.822;2023-05-07T11:03:14;101826.78;;;23.13
66113;BMP280;52893;52.870;5.822;2023-05-07T11:06:10;101800.03;;;22.91
66113;BMP280;52893;52.870;5.822;2023-05-07T11:09:03;101820.03;;;23.10
66113;BMP280;52893;52.870;5.822;2023-05-07T11:11:50;101815.31;;;23.32
66113;BMP280;52893;52.870;5.822;2023-05-07T11:14:44;101819.34;;;23.66
66113;BMP280;52893;52.870;5.822;2023-05-07T11:17:19;101814.16;;;23.82
66113;BMP280;52893;52.870;5.822;2023-05-07T11:19:55;101821.34;;;23.83
66113;BMP280;52893;52.870;5.822;2023-05-07T11:22:47;101813.78;;;23.52
66113;BMP280;52893;52.870;5.822;2023-05-07T11:25:30;101814.50;;;23.35
66113;BMP280;52893;52.870;5.822;2023-05-07T11:28:06;101818.03;;;23.11
66113;BMP280;52893;52.870;5.822;2023-05-07T11:30:36;101817.53;;;22.84
66113;BMP280;52893;52.870;5.822;2023-05-07T11:33:06;101829.47;;;22.81
66113;BMP280;52893;52.870;5.822;2023-05-07T11:35:34;101823.78;;;22.60
66113;BMP280;52893;52.870;5.822;2023-05-07T11:38:03;101823.69;;;22.46
66113;BMP280;52893;52.870;5.822;2023-05-07T11:40:33;101823.25;;;22.40
66113;BMP280;52893;52.870;5.822;2023-05-07T11:43:10;101824.06;;;22.37
66113;BMP280;52893;52.870;5.822;2023-05-07T11:45:37;101831.50;;;22.26
66113;BMP280;52893;52.870;5.822;2023-05-07T11:48:05;101824.00;;;22.34
66113;BMP280;52893;52.870;5.822;2023-05-07T11:50:32;101819.63;;;22.29
66113;BMP280;52893;52.870;5.822;2023-05-07T11:52:59;101830.31;;;22.27
66113;BMP280;52893;52.870;5.822;2023-05-07T11:55:28;101829.47;;;22.23
66113;BMP280;52893;52.870;5.822;2023-05-07T11:57:55;101826.66;;;22.16
66113;BMP280;52893;52.870;5.822;2023-05-07T12:00:22;101835.44;;;22.22
66113;BMP280;52893;52.870;5.822;2023-05-07T12:02:49;101833.06;;;22.20
66113;BMP280;52893;52.870;5.822;2023-05-07T12:05:17;101820.72;;;22.21
66113;BMP280;52893;52.870;5.822;2023-05-07T12:07:44;101811.69;;;22.35
66113;BMP280;52893;52.870;5.822;2023-05-07T12:10:12;101817.31;;;22.45
66113;BMP280;52893;52.870;5.822;2023-05-07T12:12:41;101819.94;;;22.82
66113;BMP280;52893;52.870;5.822;2023-05-07T12:15:09;101820.50;;;23.44
66113;BMP280;52893;52.870;5.822;2023-05-07T12:17:36;101811.81;;;23.77
66113;BMP280;52893;52.870;5.822;2023-05-07T12:20:05;101810.19;;;23.90
66113;BMP280;52893;52.870;5.822;2023-05-07T12:22:33;101816.56;;;24.16
66113;BMP280;52893;52.870;5.822;2023-05-07T12:25:00;101823.72;;;24.31
66113;BMP280;52893;52.870;5.822;2023-05-07T12:27:28;101826.47;;;24.38
66113;BMP280;52893;52.870;5.822;2023-05-07T12:29:58;101824.91;;;24.37
66113;BMP280;52893;52.870;5.822;2023-05-07T12:32:25;101827.31;;;24.24
66113;BMP280;52893;52.870;5.822;2023-05-07T12:34:53;101819.38;;;24.09
66113;BMP280;52893;52.870;5.822;2023-05-07T12:37:24;101830.91;;;24.21
66113;BMP280;52893;52.870;5.822;2023-05-07T12:40:04;101835.28;;;24.26
66113;BMP280;52893;52.870;5.822;2023-05-07T12:42:33;101840.06;;;24.15
66113;BMP280;52893;52.870;5.822;2023-05-07T12:45:09;101843.66;;;24.12
66113;BMP280;52893;52.870;5.822;2023-05-07T12:47:36;101840.84;;;24.22
66113;BMP280;52893;52.870;5.822;2023-05-07T12:50:05;101830.09;;;24.35
66113;BMP280;52893;52.870;5.822;2023-05-07T12:52:33;101828.44;;;24.48
66113;BMP280;52893;52.870;5.822;2023-05-07T12:55:04;101830.44;;;24.54
66113;BMP280;52893;52.870;5.822;2023-05-07T12:57:38;101828.06;;;24.46
66113;BMP280;52893;52.870;5.822;2023-05-07T13:00:06;101828.06;;;24.39
66113;BMP280;52893;52.870;5.822;2023-05-07T13:02:38;101829.28;;;24.34
66113;BMP280;52893;52.870;5.822;2023-05-07T13:05:06;101828.09;;;24.35
66113;BMP280;52893;52.870;5.822;2023-05-07T13:07:34;101834.44;;;24.29
66113;BMP280;52893;52.870;5.822;2023-05-07T13:10:01;101840.06;;;24.15
66113;BMP280;52893;52.870;5.822;2023-05-07T13:12:28;101828.53;;;23.95
66113;BMP280;52893;52.870;5.822;2023-05-07T13:14:55;101837.69;;;23.81
66113;BMP280;52893;52.870;5.822;2023-05-07T13:17:22;101844.84;;;23.61
66113;BMP280;52893;52.870;5.822;2023-05-07T13:19:51;101830.84;;;23.37
66113;BMP280;52893;52.870;5.822;2023-05-07T13:22:18;101817.28;;;23.21
66113;BMP280;52893;52.870;5.822;2023-05-07T13:24:45;101826.47;;;23.32
66113;BMP280;52893;52.870;5.822;2023-05-07T13:27:13;101839.19;;;23.29
66113;BMP280;52893;52.870;5.822;2023-05-07T13:29:40;101834.91;;;23.57
66113;BMP280;52893;52.870;5.822;2023-05-07T13:32:07;101835.28;;;24.05
66113;BMP280;52893;52.870;5.822;2023-05-07T13:34:34;101830.03;;;24.63
66113;BMP280;52893;52.870;5.822;2023-05-07T13:37:04;101830.66;;;25.02
66113;BMP280;52893;52.870;5.822;2023-05-07T13:39:33;101830.09;;;25.29
66113;BMP280;52893;52.870;5.822;2023-05-07T13:42:00;101832.47;;;25.30
66113;BMP280;52893;52.870;5.822;2023-05-07T13:44:28;101834.03;;;25.35
66113;BMP280;52893;52.870;5.822;2023-05-07T13:46:55;101841.22;;;25.36
66113;BMP280;52893;52.870;5.822;2023-05-07T13:49:22;101835.81;;;25.66
66113;BMP280;52893;52.870;5.822;2023-05-07T13:51:49;101830.88;;;25.80
66113;BMP280;52893;52.870;5.822;2023-05-07T13:54:18;101823.44;;;25.67
66113;BMP280;52893;52.870;5.822;2023-05-07T13:56:45;101816.97;;;25.73
66113;BMP280;52893;52.870;5.822;2023-05-07T13:59:12;101831.41;;;26.09
66113;BMP280;52893;52.870;5.822;2023-05-07T14:01:40;101819.03;;;26.10
66113;BMP280;52893;52.870;5.822;2023-05-07T14:04:07;101828.88;;;25.84
66113;BMP280;52893;52.870;5.822;2023-05-07T14:06:35;101816.47;;;25.38
66113;BMP280;52893;52.870;5.822;2023-05-07T14:09:02;101824.22;;;25.05
66113;BMP280;52893;52.870;5.822;2023-05-07T14:11:31;101829.97;;;24.70
66113;BMP280;52893;52.870;5.822;2023-05-07T14:13:58;101823.69;;;24.45